sensor_id;sensor_type;location;lat;lon;timestamp;P1;durP1;ratioP1;P2;durP2;ratioP2
5129;SDS011;2583;50.946;6.954;2022-10-31T00:01:16;14.17;;;8.77;;
5129;SDS011;2583;50.946;6.954;2022-10-31T00:03:43;17.23;;;9.00;;
5129;SDS011;2583;50.946;6.954;2022-10-31T00:06:11;11.93;;;10.00;;
5129;SDS011;2583;50.946;6.954;2022-10-31T00:08:37;15.23;;;9.80;;
5129;SDS011;2583;50.946;6.954;2022-10-31T00:11:08;12.87;;;9.63;;
5129;SDS011;2583;50.946;6.954;2022-10-31T00:13:35;10.63;;;8.37;;
5129;SDS011;2583;50.946;6.954;2022-10-31T00:16:02;17.00;;;9.90;;
5129;SDS011;2583;50.946;6.954;2022-10-31T00:18:29;12.37;;;9.90;;
5129;SDS011;2583;50.946;6.954;2022-10-31T00:21:00;12.50;;;8.13;;
5129;SDS011;2583;50.946;6.954;2022-10-31T00:23:27;15.50;;;8.63;;
5129;SDS011;2583;50.946;6.954;2022-10-31T00:25:59;12.70;;;7.97;;
5129;SDS011;2583;50.946;6.954;2022-10-31T00:28:28;19.37;;;8.40;;
5129;SDS011;2583;50.946;6.954;2022-10-31T00:31:03;17.00;;;8.50;;
5129;SDS011;2583;50.946;6.954;2022-10-31T00:33:33;15.43;;;8.83;;
5129;SDS011;2583;50.946;6.954;2022-10-31T00:36:01;14.00;;;8.77;;
5129;SDS011;2583;50.946;6.954;2022-10-31T00:38:27;10.17;;;8.60;;
5129;SDS011;2583;50.946;6.954;2022-10-31T00:40:54;8.70;;;7.80;;
5129;SDS011;2583;50.946;6.954;2022-10-31T00:43:21;14.93;;;8.33;;
5129;SDS011;2583;50.946;6.954;2022-10-31T00:45:48;20.57;;;8.07;;
5129;SDS011;2583;50.946;6.954;2022-10-31T00:48:14;13.90;;;8.50;;
5129;SDS011;2583;50.946;6.954;2022-10-31T00:50:42;12.77;;;7.63;;
5129;SDS011;2583;50.946;6.954;2022-10-31T00:53:08;15.13;;;7.33;;
5129;SDS011;2583;50.946;6.954;2022-10-31T00:55:35;10.53;;;7.53;;
5129;SDS011;2583;50.946;6.954;2022-10-31T00:58:02;9.07;;;7.00;;
5129;SDS011;2583;50.946;6.954;2022-10-31T01:00:29;9.87;;;8.63;;
5129;SDS011;2583;50.946;6.954;2022-10-31T01:02:56;10.97;;;8.20;;
5129;SDS011;2583;50.946;6.954;2022-10-31T01:05:23;13.37;;;7.80;;
5129;SDS011;2583;50.946;6.954;2022-10-31T01:07:50;13.20;;;8.07;;
5129;SDS011;2583;50.946;6.954;2022-10-31T01:10:17;9.27;;;7.00;;
5129;SDS011;2583;50.946;6.954;2022-10-31T01:12:45;12.33;;;8.50;;
5129;SDS011;2583;50.946;6.954;2022-10-31T01:15:14;8.77;;;7.93;;
5129;SDS011;2583;50.946;6.954;2022-10-31T01:17:46;9.57;;;8.07;;
5129;SDS011;2583;50.946;6.954;2022-10-31T01:20:14;8.80;;;7.53;;
5129;SDS011;2583;50.946;6.954;2022-10-31T01:22:42;12.13;;;7.57;;
5129;SDS011;2583;50.946;6.954;2022-10-31T01:25:09;12.23;;;7.60;;
5129;SDS011;2583;50.946;6.954;2022-10-31T01:27:36;11.20;;;8.07;;
5129;SDS011;2583;50.946;6.954;2022-10-31T01:30:03;12.33;;;8.83;;
5129;SDS011;2583;50.946;6.954;2022-10-31T01:32:31;11.60;;;7.07;;
5129;SDS011;2583;50.946;6.954;2022-10-31T01:34:58;11.23;;;7.70;;
5129;SDS011;2583;50.946;6.954;2022-10-31T01:37:25;13.67;;;8.30;;
5129;SDS011;2583;50.946;6.954;2022-10-31T01:39:52;8.60;;;7.70;;
5129;SDS011;2583;50.946;6.954;2022-10-31T01:42:19;17.53;;;8.93;;
5129;SDS011;2583;50.946;6.954;2022-10-31T01:44:55;10.00;;;7.53;;
5129;SDS011;2583;50.946;6.954;2022-10-31T01:47:30;15.10;;;8.00;;
5129;SDS011;2583;50.946;6.954;2022-10-31T01:50:10;10.27;;;7.47;;
5129;SDS011;2583;50.946;6.954;2022-10-31T01:52:58;15.77;;;7.80;;
5129;SDS011;2583;50.946;6.954;2022-10-31T01:55:28;16.73;;;8.60;;
5129;SDS011;2583;50.946;6.954;2022-10-31T01:58:06;10.53;;;7.70;;
5129;SDS011;2583;50.946;6.954;2022-10-31T02:00:35;9.53;;;6.97;;
5129;SDS011;2583;50.946;6.954;2022-10-31T02:03:03;13.93;;;7.90;;
5129;SDS011;2583;50.946;6.954;2022-10-31T02:05:30;19.93;;;8.43;;
5129;SDS011;2583;50.946;6.954;2022-10-31T02:07:59;14.93;;;8.03;;
5129;SDS011;2583;50.946;6.954;2022-10-31T02:10:37;13.23;;;8.03;;
5129;SDS011;2583;50.946;6.954;2022-10-31T02:13:05;8.77;;;6.87;;
5129;SDS011;2583;50.946;6.954;2022-10-31T02:15:33;8.67;;;7.87;;
5129;SDS011;2583;50.946;6.954;2022-10-31T02:18:02;9.10;;;6.90;;
5129;SDS011;2583;50.946;6.954;2022-10-31T02:20:32;17.43;;;8.40;;
5129;SDS011;2583;50.946;6.954;2022-10-31T02:28:38;9.77;;;7.77;;
5129;SDS011;2583;50.946;6.954;2022-10-31T02:31:23;8.73;;;7.27;;
5129;SDS011;2583;50.946;6.954;2022-10-31T02:33:59;11.13;;;7.33;;
5129;SDS011;2583;50.946;6.954;2022-10-31T02:36:41;8.50;;;6.73;;
5129;SDS011;2583;50.946;6.954;2022-10-31T02:39:18;13.17;;;8.53;;
5129;SDS011;2583;50.946;6.954;2022-10-31T02:42:01;11.23;;;6.93;;
5129;SDS011;2583;50.946;6.954;2022-10-31T02:44:39;9.70;;;6.40;;
5129;SDS011;2583;50.946;6.954;2022-10-31T02:47:19;11.60;;;8.07;;
5129;SDS011;2583;50.946;6.954;2022-10-31T02:49:52;11.90;;;7.70;;
5129;SDS011;2583;50.946;6.954;2022-10-31T02:52:30;10.27;;;7.03;;
5129;SDS011;2583;50.946;6.954;2022-10-31T02:54:58;7.70;;;6.90;;
5129;SDS011;2583;50.946;6.954;2022-10-31T02:57:35;8.03;;;7.43;;
5129;SDS011;2583;50.946;6.954;2022-10-31T03:00:04;9.10;;;7.90;;
5129;SDS011;2583;50.946;6.954;2022-10-31T03:05:26;11.87;;;7.57;;
5129;SDS011;2583;50.946;6.954;2022-10-31T03:08:06;10.60;;;7.03;;
5129;SDS011;2583;50.946;6.954;2022-10-31T03:13:13;15.80;;;7.97;;
5129;SDS011;2583;50.946;6.954;2022-10-31T03:15:56;10.63;;;7.37;;
5129;SDS011;2583;50.946;6.954;2022-10-31T03:18:57;10.93;;;7.47;;
5129;SDS011;2583;50.946;6.954;2022-10-31T03:21:29;15.20;;;8.10;;
5129;SDS011;2583;50.946;6.954;2022-10-31T03:24:00;12.27;;;7.73;;
5129;SDS011;2583;50.946;6.954;2022-10-31T03:26:28;9.80;;;6.73;;
5129;SDS011;2583;50.946;6.954;2022-10-31T03:29:02;10.53;;;8.10;;
5129;SDS011;2583;50.946;6.954;2022-10-31T03:31:33;9.70;;;6.93;;
5129;SDS011;2583;50.946;6.954;2022-10-31T03:34:05;12.33;;;7.80;;
5129;SDS011;2583;50.946;6.954;2022-10-31T03:36:33;14.07;;;7.30;;
5129;SDS011;2583;50.946;6.954;2022-10-31T03:39:04;13.67;;;7.90;;
5129;SDS011;2583;50.946;6.954;2022-10-31T03:41:35;12.57;;;8.17;;
5129;SDS011;2583;50.946;6.954;2022-10-31T03:44:08;12.17;;;7.33;;
5129;SDS011;2583;50.946;6.954;2022-10-31T03:46:39;13.23;;;6.60;;
5129;SDS011;2583;50.946;6.954;2022-10-31T03:49:07;8.87;;;6.80;;
5129;SDS011;2583;50.946;6.954;2022-10-31T03:51:37;13.63;;;6.70;;
5129;SDS011;2583;50.946;6.954;2022-10-31T03:54:19;10.93;;;6.87;;
5129;SDS011;2583;50.946;6.954;2022-10-31T03:57:02;9.50;;;7.23;;
5129;SDS011;2583;50.946;6.954;2022-10-31T03:59:36;20.37;;;8.53;;
5129;SDS011;2583;50.946;6.954;2022-10-31T04:02:10;8.90;;;7.23;;
5129;SDS011;2583;50.946;6.954;2022-10-31T04:04:41;12.40;;;7.07;;
5129;SDS011;2583;50.946;6.954;2022-10-31T04:07:10;13.63;;;6.87;;
5129;SDS011;2583;50.946;6.954;2022-10-31T04:09:38;12.53;;;7.17;;
5129;SDS011;2583;50.946;6.954;2022-10-31T04:12:11;8.53;;;7.43;;
5129;SDS011;2583;50.946;6.954;2022-10-31T04:14:42;9.37;;;7.20;;
5129;SDS011;2583;50.946;6.954;2022-10-31T04:17:12;11.37;;;7.70;;
5129;SDS011;2583;50.946;6.954;2022-10-31T04:19:43;7.37;;;6.60;;
5129;SDS011;2583;50.946;6.954;2022-10-31T04:22:11;8.43;;;6.50;;
5129;SDS011;2583;50.946;6.954;2022-10-31T04:24:38;12.27;;;7.23;;
5129;SDS011;2583;50.946;6.954;2022-10-31T04:27:06;13.40;;;8.07;;
5129;SDS011;2583;50.946;6.954;2022-10-31T04:29:33;16.00;;;8.30;;
5129;SDS011;2583;50.946;6.954;2022-10-31T04:32:00;17.13;;;7.87;;
5129;SDS011;2583;50.946;6.954;2022-10-31T04:34:26;8.37;;;7.20;;
5129;SDS011;2583;50.946;6.954;2022-10-31T04:36:53;7.60;;;6.87;;
5129;SDS011;2583;50.946;6.954;2022-10-31T04:39:20;10.70;;;8.50;;
5129;SDS011;2583;50.946;6.954;2022-10-31T04:41:51;14.63;;;7.43;;
5129;SDS011;2583;50.946;6.954;2022-10-31T04:44:18;10.17;;;7.10;;
5129;SDS011;2583;50.946;6.954;2022-10-31T04:46:45;10.37;;;7.00;;
5129;SDS011;2583;50.946;6.954;2022-10-31T04:49:12;13.23;;;7.47;;
5129;SDS011;2583;50.946;6.954;2022-10-31T04:51:39;13.63;;;7.97;;
5129;SDS011;2583;50.946;6.954;2022-10-31T04:54:06;11.57;;;7.80;;
5129;SDS011;2583;50.946;6.954;2022-10-31T04:56:33;12.30;;;6.77;;
5129;SDS011;2583;50.946;6.954;2022-10-31T04:58:59;12.33;;;7.30;;
5129;SDS011;2583;50.946;6.954;2022-10-31T05:01:26;15.23;;;8.03;;
5129;SDS011;2583;50.946;6.954;2022-10-31T05:03:54;9.20;;;6.83;;
5129;SDS011;2583;50.946;6.954;2022-10-31T05:06:21;8.17;;;7.27;;
5129;SDS011;2583;50.946;6.954;2022-10-31T05:08:47;9.13;;;7.10;;
5129;SDS011;2583;50.946;6.954;2022-10-31T05:11:14;17.07;;;8.63;;
5129;SDS011;2583;50.946;6.954;2022-10-31T05:13:41;7.97;;;6.90;;
5129;SDS011;2583;50.946;6.954;2022-10-31T05:16:07;10.73;;;6.50;;
5129;SDS011;2583;50.946;6.954;2022-10-31T05:18:34;7.97;;;7.17;;
5129;SDS011;2583;50.946;6.954;2022-10-31T05:21:01;15.77;;;7.27;;
5129;SDS011;2583;50.946;6.954;2022-10-31T05:23:28;8.27;;;7.40;;
5129;SDS011;2583;50.946;6.954;2022-10-31T05:25:54;10.07;;;6.90;;
5129;SDS011;2583;50.946;6.954;2022-10-31T05:28:21;17.47;;;9.20;;
5129;SDS011;2583;50.946;6.954;2022-10-31T05:30:48;13.00;;;7.67;;
5129;SDS011;2583;50.946;6.954;2022-10-31T05:33:16;10.03;;;6.80;;
5129;SDS011;2583;50.946;6.954;2022-10-31T05:35:42;11.70;;;7.80;;
5129;SDS011;2583;50.946;6.954;2022-10-31T05:38:09;10.13;;;7.63;;
5129;SDS011;2583;50.946;6.954;2022-10-31T05:40:36;12.27;;;7.77;;
5129;SDS011;2583;50.946;6.954;2022-10-31T05:43:03;14.67;;;7.37;;
5129;SDS011;2583;50.946;6.954;2022-10-31T05:45:29;12.90;;;6.90;;
5129;SDS011;2583;50.946;6.954;2022-10-31T05:48:00;16.87;;;8.07;;
5129;SDS011;2583;50.946;6.954;2022-10-31T05:50:29;9.30;;;7.83;;
5129;SDS011;2583;50.946;6.954;2022-10-31T05:52:58;11.60;;;7.77;;
5129;SDS011;2583;50.946;6.954;2022-10-31T05:55:26;11.20;;;7.83;;
5129;SDS011;2583;50.946;6.954;2022-10-31T05:57:54;17.30;;;8.23;;
5129;SDS011;2583;50.946;6.954;2022-10-31T06:00:21;12.33;;;7.77;;
5129;SDS011;2583;50.946;6.954;2022-10-31T06:02:49;11.13;;;7.30;;
5129;SDS011;2583;50.946;6.954;2022-10-31T06:05:15;11.67;;;7.67;;
5129;SDS011;2583;50.946;6.954;2022-10-31T06:07:42;12.67;;;8.20;;
5129;SDS011;2583;50.946;6.954;2022-10-31T06:10:10;8.23;;;7.03;;
5129;SDS011;2583;50.946;6.954;2022-10-31T06:12:37;8.73;;;7.40;;
5129;SDS011;2583;50.946;6.954;2022-10-31T06:15:04;12.73;;;7.50;;
5129;SDS011;2583;50.946;6.954;2022-10-31T06:17:33;17.57;;;8.27;;
5129;SDS011;2583;50.946;6.954;2022-10-31T06:20:00;14.13;;;8.37;;
5129;SDS011;2583;50.946;6.954;2022-10-31T06:22:27;13.13;;;7.37;;
5129;SDS011;2583;50.946;6.954;2022-10-31T06:24:54;11.17;;;8.23;;
5129;SDS011;2583;50.946;6.954;2022-10-31T06:27:21;13.90;;;7.77;;
5129;SDS011;2583;50.946;6.954;2022-10-31T06:29:48;13.70;;;9.53;;
5129;SDS011;2583;50.946;6.954;2022-10-31T06:32:15;16.10;;;8.00;;
5129;SDS011;2583;50.946;6.954;2022-10-31T06:34:43;14.70;;;8.73;;
5129;SDS011;2583;50.946;6.954;2022-10-31T06:37:10;14.47;;;8.50;;
5129;SDS011;2583;50.946;6.954;2022-10-31T06:39:38;15.40;;;8.27;;
5129;SDS011;2583;50.946;6.954;2022-10-31T06:42:04;15.10;;;8.30;;
5129;SDS011;2583;50.946;6.954;2022-10-31T06:44:31;18.23;;;8.20;;
5129;SDS011;2583;50.946;6.954;2022-10-31T06:46:59;12.90;;;8.20;;
5129;SDS011;2583;50.946;6.954;2022-10-31T06:49:26;19.13;;;9.50;;
5129;SDS011;2583;50.946;6.954;2022-10-31T06:51:52;29.77;;;15.43;;
5129;SDS011;2583;50.946;6.954;2022-10-31T06:54:19;8.63;;;7.50;;
5129;SDS011;2583;50.946;6.954;2022-10-31T06:56:46;15.70;;;7.40;;
5129;SDS011;2583;50.946;6.954;2022-10-31T06:59:13;20.63;;;8.00;;
5129;SDS011;2583;50.946;6.954;2022-10-31T07:01:41;12.13;;;7.27;;
5129;SDS011;2583;50.946;6.954;2022-10-31T07:04:11;10.63;;;7.60;;
5129;SDS011;2583;50.946;6.954;2022-10-31T07:06:38;11.13;;;8.20;;
5129;SDS011;2583;50.946;6.954;2022-10-31T07:09:05;20.93;;;8.27;;
5129;SDS011;2583;50.946;6.954;2022-10-31T07:11:32;11.87;;;8.20;;
5129;SDS011;2583;50.946;6.954;2022-10-31T07:13:58;11.50;;;8.23;;
5129;SDS011;2583;50.946;6.954;2022-10-31T07:16:25;21.10;;;9.20;;
5129;SDS011;2583;50.946;6.954;2022-10-31T07:18:52;11.27;;;7.90;;
5129;SDS011;2583;50.946;6.954;2022-10-31T07:21:19;13.30;;;6.93;;
5129;SDS011;2583;50.946;6.954;2022-10-31T07:23:49;16.17;;;7.43;;
5129;SDS011;2583;50.946;6.954;2022-10-31T07:26:15;20.70;;;8.30;;
5129;SDS011;2583;50.946;6.954;2022-10-31T07:28:42;11.33;;;7.43;;
5129;SDS011;2583;50.946;6.954;2022-10-31T07:31:09;8.30;;;7.50;;
5129;SDS011;2583;50.946;6.954;2022-10-31T07:33:35;13.37;;;7.70;;
5129;SDS011;2583;50.946;6.954;2022-10-31T07:36:02;11.03;;;7.37;;
5129;SDS011;2583;50.946;6.954;2022-10-31T07:38:29;13.60;;;7.20;;
5129;SDS011;2583;50.946;6.954;2022-10-31T07:40:56;12.83;;;7.40;;
5129;SDS011;2583;50.946;6.954;2022-10-31T07:43:22;11.83;;;7.50;;
5129;SDS011;2583;50.946;6.954;2022-10-31T07:45:50;16.87;;;7.17;;
5129;SDS011;2583;50.946;6.954;2022-10-31T07:48:18;13.10;;;7.57;;
5129;SDS011;2583;50.946;6.954;2022-10-31T07:50:45;10.03;;;7.60;;
5129;SDS011;2583;50.946;6.954;2022-10-31T07:53:12;11.30;;;6.97;;
5129;SDS011;2583;50.946;6.954;2022-10-31T07:55:40;14.60;;;7.87;;
5129;SDS011;2583;50.946;6.954;2022-10-31T07:58:15;9.57;;;8.53;;
5129;SDS011;2583;50.946;6.954;2022-10-31T08:00:43;14.00;;;8.40;;
5129;SDS011;2583;50.946;6.954;2022-10-31T08:03:12;8.00;;;7.23;;
5129;SDS011;2583;50.946;6.954;2022-10-31T08:05:40;13.60;;;7.27;;
5129;SDS011;2583;50.946;6.954;2022-10-31T08:08:07;56.13;;;11.60;;
5129;SDS011;2583;50.946;6.954;2022-10-31T08:10:34;10.17;;;7.40;;
5129;SDS011;2583;50.946;6.954;2022-10-31T08:13:03;15.37;;;8.80;;
5129;SDS011;2583;50.946;6.954;2022-10-31T08:15:34;17.70;;;8.60;;
5129;SDS011;2583;50.946;6.954;2022-10-31T08:18:04;10.70;;;8.70;;
5129;SDS011;2583;50.946;6.954;2022-10-31T08:20:32;13.87;;;9.20;;
5129;SDS011;2583;50.946;6.954;2022-10-31T08:23:03;16.40;;;9.10;;
5129;SDS011;2583;50.946;6.954;2022-10-31T08:25:31;10.80;;;8.57;;
5129;SDS011;2583;50.946;6.954;2022-10-31T08:28:04;11.93;;;8.90;;
5129;SDS011;2583;50.946;6.954;2022-10-31T08:30:32;13.40;;;7.93;;
5129;SDS011;2583;50.946;6.954;2022-10-31T08:33:04;12.90;;;8.07;;
5129;SDS011;2583;50.946;6.954;2022-10-31T08:35:34;10.80;;;7.80;;
5129;SDS011;2583;50.946;6.954;2022-10-31T08:38:01;12.57;;;7.40;;
5129;SDS011;2583;50.946;6.954;2022-10-31T08:40:30;12.43;;;8.43;;
5129;SDS011;2583;50.946;6.954;2022-10-31T08:43:02;8.50;;;7.00;;
5129;SDS011;2583;50.946;6.954;2022-10-31T08:45:32;9.90;;;6.93;;
5129;SDS011;2583;50.946;6.954;2022-10-31T08:48:00;10.83;;;7.67;;
5129;SDS011;2583;50.946;6.954;2022-10-31T08:50:29;16.50;;;8.27;;
5129;SDS011;2583;50.946;6.954;2022-10-31T08:53:05;12.80;;;8.20;;
5129;SDS011;2583;50.946;6.954;2022-10-31T08:55:36;13.37;;;8.53;;
5129;SDS011;2583;50.946;6.954;2022-10-31T08:58:04;10.87;;;7.70;;
5129;SDS011;2583;50.946;6.954;2022-10-31T09:00:33;14.80;;;7.47;;
5129;SDS011;2583;50.946;6.954;2022-10-31T09:03:01;10.03;;;8.33;;
5129;SDS011;2583;50.946;6.954;2022-10-31T09:05:30;10.37;;;6.97;;
5129;SDS011;2583;50.946;6.954;2022-10-31T09:07:57;13.73;;;8.00;;
5129;SDS011;2583;50.946;6.954;2022-10-31T09:10:26;14.77;;;8.33;;
5129;SDS011;2583;50.946;6.954;2022-10-31T09:12:58;19.00;;;9.90;;
5129;SDS011;2583;50.946;6.954;2022-10-31T09:15:36;12.30;;;9.53;;
5129;SDS011;2583;50.946;6.954;2022-10-31T09:18:05;13.00;;;6.63;;
5129;SDS011;2583;50.946;6.954;2022-10-31T09:20:33;12.70;;;7.50;;
5129;SDS011;2583;50.946;6.954;2022-10-31T09:23:02;8.10;;;7.10;;
5129;SDS011;2583;50.946;6.954;2022-10-31T09:25:30;14.13;;;9.63;;
5129;SDS011;2583;50.946;6.954;2022-10-31T09:27:59;9.90;;;8.03;;
5129;SDS011;2583;50.946;6.954;2022-10-31T09:30:28;14.63;;;7.97;;
5129;SDS011;2583;50.946;6.954;2022-10-31T09:33:00;9.23;;;7.57;;
5129;SDS011;2583;50.946;6.954;2022-10-31T09:35:28;9.20;;;7.70;;
5129;SDS011;2583;50.946;6.954;2022-10-31T09:40:29;12.07;;;7.00;;
5129;SDS011;2583;50.946;6.954;2022-10-31T09:43:11;15.83;;;8.10;;
5129;SDS011;2583;50.946;6.954;2022-10-31T09:45:56;8.10;;;7.30;;
5129;SDS011;2583;50.946;6.954;2022-10-31T09:51:33;16.20;;;7.80;;
5129;SDS011;2583;50.946;6.954;2022-10-31T09:56:55;19.93;;;9.00;;
5129;SDS011;2583;50.946;6.954;2022-10-31T09:59:28;18.97;;;8.23;;
5129;SDS011;2583;50.946;6.954;2022-10-31T10:02:01;12.57;;;9.10;;
5129;SDS011;2583;50.946;6.954;2022-10-31T10:04:31;15.83;;;8.23;;
5129;SDS011;2583;50.946;6.954;2022-10-31T10:07:06;16.43;;;8.33;;
5129;SDS011;2583;50.946;6.954;2022-10-31T10:09:40;12.90;;;8.20;;
5129;SDS011;2583;50.946;6.954;2022-10-31T10:12:14;20.60;;;8.43;;
5129;SDS011;2583;50.946;6.954;2022-10-31T10:17:49;8.07;;;7.27;;
5129;SDS011;2583;50.946;6.954;2022-10-31T10:20:40;11.27;;;7.47;;
5129;SDS011;2583;50.946;6.954;2022-10-31T10:26:10;12.00;;;8.40;;
5129;SDS011;2583;50.946;6.954;2022-10-31T10:28:40;9.07;;;8.00;;
5129;SDS011;2583;50.946;6.954;2022-10-31T10:31:16;17.90;;;8.00;;
5129;SDS011;2583;50.946;6.954;2022-10-31T10:33:56;13.83;;;7.57;;
5129;SDS011;2583;50.946;6.954;2022-10-31T10:36:37;13.73;;;7.20;;
5129;SDS011;2583;50.946;6.954;2022-10-31T10:40:02;9.53;;;6.63;;
5129;SDS011;2583;50.946;6.954;2022-10-31T10:42:09;8.93;;;6.57;;
5129;SDS011;2583;50.946;6.954;2022-10-31T10:44:57;8.00;;;7.17;;
5129;SDS011;2583;50.946;6.954;2022-10-31T10:47:44;11.63;;;7.50;;
5129;SDS011;2583;50.946;6.954;2022-10-31T10:50:20;8.17;;;6.53;;
5129;SDS011;2583;50.946;6.954;2022-10-31T10:55:55;10.80;;;6.17;;
5129;SDS011;2583;50.946;6.954;2022-10-31T10:58:40;9.70;;;5.93;;
5129;SDS011;2583;50.946;6.954;2022-10-31T11:01:09;8.23;;;6.80;;
5129;SDS011;2583;50.946;6.954;2022-10-31T11:03:45;7.47;;;6.80;;
5129;SDS011;2583;50.946;6.954;2022-10-31T11:06:16;10.43;;;5.60;;
5129;SDS011;2583;50.946;6.954;2022-10-31T11:08:48;8.60;;;6.10;;
5129;SDS011;2583;50.946;6.954;2022-10-31T11:13:43;14.00;;;5.40;;
5129;SDS011;2583;50.946;6.954;2022-10-31T11:16:33;9.07;;;5.60;;
5129;SDS011;2583;50.946;6.954;2022-10-31T11:19:07;12.23;;;6.33;;
5129;SDS011;2583;50.946;6.954;2022-10-31T11:21:52;11.60;;;5.50;;
5129;SDS011;2583;50.946;6.954;2022-10-31T11:24:21;7.57;;;5.53;;
5129;SDS011;2583;50.946;6.954;2022-10-31T11:26:49;6.33;;;5.50;;
5129;SDS011;2583;50.946;6.954;2022-10-31T11:29:21;7.90;;;5.60;;
5129;SDS011;2583;50.946;6.954;2022-10-31T11:31:56;10.57;;;5.30;;
5129;SDS011;2583;50.946;6.954;2022-10-31T11:37:03;10.50;;;6.10;;
5129;SDS011;2583;50.946;6.954;2022-10-31T11:39:41;10.10;;;6.43;;
5129;SDS011;2583;50.946;6.954;2022-10-31T11:42:11;11.97;;;7.77;;
5129;SDS011;2583;50.946;6.954;2022-10-31T11:44:40;7.90;;;5.53;;
5129;SDS011;2583;50.946;6.954;2022-10-31T11:47:11;9.57;;;6.30;;
5129;SDS011;2583;50.946;6.954;2022-10-31T11:49:45;21.73;;;14.20;;
5129;SDS011;2583;50.946;6.954;2022-10-31T11:52:20;9.50;;;6.80;;
5129;SDS011;2583;50.946;6.954;2022-10-31T11:55:48;9.60;;;5.70;;
5129;SDS011;2583;50.946;6.954;2022-10-31T11:57:57;7.37;;;5.70;;
5129;SDS011;2583;50.946;6.954;2022-10-31T12:05:55;12.87;;;5.90;;
5129;SDS011;2583;50.946;6.954;2022-10-31T12:08:31;6.90;;;5.30;;
5129;SDS011;2583;50.946;6.954;2022-10-31T12:13:59;7.10;;;4.33;;
5129;SDS011;2583;50.946;6.954;2022-10-31T12:16:56;6.90;;;4.00;;
5129;SDS011;2583;50.946;6.954;2022-10-31T12:30:54;5.07;;;4.07;;
5129;SDS011;2583;50.946;6.954;2022-10-31T12:41:51;9.77;;;4.27;;
5129;SDS011;2583;50.946;6.954;2022-10-31T12:58:55;12.50;;;5.70;;
5129;SDS011;2583;50.946;6.954;2022-10-31T13:01:39;15.57;;;4.70;;
5129;SDS011;2583;50.946;6.954;2022-10-31T13:07:08;8.77;;;4.73;;
5129;SDS011;2583;50.946;6.954;2022-10-31T13:09:48;9.17;;;4.10;;
5129;SDS011;2583;50.946;6.954;2022-10-31T13:12:22;12.07;;;4.97;;
5129;SDS011;2583;50.946;6.954;2022-10-31T13:14:52;12.43;;;4.03;;
5129;SDS011;2583;50.946;6.954;2022-10-31T13:17:39;8.60;;;5.10;;
5129;SDS011;2583;50.946;6.954;2022-10-31T13:22:44;9.53;;;4.53;;
5129;SDS011;2583;50.946;6.954;2022-10-31T13:25:15;5.87;;;4.50;;
5129;SDS011;2583;50.946;6.954;2022-10-31T13:27:47;7.20;;;3.77;;
5129;SDS011;2583;50.946;6.954;2022-10-31T13:30:19;9.70;;;5.87;;
5129;SDS011;2583;50.946;6.954;2022-10-31T13:46:01;7.80;;;4.70;;
5129;SDS011;2583;50.946;6.954;2022-10-31T13:48:47;8.20;;;3.90;;
5129;SDS011;2583;50.946;6.954;2022-10-31T13:51:14;10.57;;;8.23;;
5129;SDS011;2583;50.946;6.954;2022-10-31T13:54:19;7.63;;;4.53;;
5129;SDS011;2583;50.946;6.954;2022-10-31T13:56:50;9.30;;;4.10;;
5129;SDS011;2583;50.946;6.954;2022-10-31T13:59:19;7.77;;;4.87;;
5129;SDS011;2583;50.946;6.954;2022-10-31T14:01:54;11.83;;;4.63;;
5129;SDS011;2583;50.946;6.954;2022-10-31T14:04:50;8.27;;;5.30;;
5129;SDS011;2583;50.946;6.954;2022-10-31T14:07:25;10.90;;;4.13;;
5129;SDS011;2583;50.946;6.954;2022-10-31T14:12:45;6.00;;;4.20;;
5129;SDS011;2583;50.946;6.954;2022-10-31T14:15:24;9.20;;;4.80;;
5129;SDS011;2583;50.946;6.954;2022-10-31T14:18:03;10.70;;;4.83;;
5129;SDS011;2583;50.946;6.954;2022-10-31T14:20:33;8.73;;;4.70;;
5129;SDS011;2583;50.946;6.954;2022-10-31T14:28:49;10.73;;;5.40;;
5129;SDS011;2583;50.946;6.954;2022-10-31T14:39:31;17.33;;;3.70;;
5129;SDS011;2583;50.946;6.954;2022-10-31T14:47:26;8.20;;;3.90;;
5129;SDS011;2583;50.946;6.954;2022-10-31T14:52:52;8.70;;;4.20;;
5129;SDS011;2583;50.946;6.954;2022-10-31T14:55:21;10.97;;;4.37;;
5129;SDS011;2583;50.946;6.954;2022-10-31T14:57:52;5.80;;;4.00;;
5129;SDS011;2583;50.946;6.954;2022-10-31T15:00:25;11.40;;;4.93;;
5129;SDS011;2583;50.946;6.954;2022-10-31T15:03:30;7.57;;;3.70;;
5129;SDS011;2583;50.946;6.954;2022-10-31T15:05:52;6.83;;;3.73;;
5129;SDS011;2583;50.946;6.954;2022-10-31T15:11:02;8.77;;;3.77;;
5129;SDS011;2583;50.946;6.954;2022-10-31T15:13:44;6.20;;;4.03;;
5129;SDS011;2583;50.946;6.954;2022-10-31T15:16:20;6.03;;;3.13;;
5129;SDS011;2583;50.946;6.954;2022-10-31T15:18:56;11.83;;;4.20;;
5129;SDS011;2583;50.946;6.954;2022-10-31T15:21:27;5.50;;;3.73;;
5129;SDS011;2583;50.946;6.954;2022-10-31T15:23:58;9.40;;;5.07;;
5129;SDS011;2583;50.946;6.954;2022-10-31T15:26:38;5.20;;;3.83;;
5129;SDS011;2583;50.946;6.954;2022-10-31T15:29:13;4.73;;;3.57;;
5129;SDS011;2583;50.946;6.954;2022-10-31T15:31:54;7.50;;;3.17;;
5129;SDS011;2583;50.946;6.954;2022-10-31T15:34:27;11.00;;;4.60;;
5129;SDS011;2583;50.946;6.954;2022-10-31T15:37:13;6.40;;;3.93;;
5129;SDS011;2583;50.946;6.954;2022-10-31T15:39:42;8.50;;;3.83;;
5129;SDS011;2583;50.946;6.954;2022-10-31T15:44:59;11.80;;;4.80;;
5129;SDS011;2583;50.946;6.954;2022-10-31T15:47:29;9.87;;;4.27;;
5129;SDS011;2583;50.946;6.954;2022-10-31T15:49:58;7.73;;;4.30;;
5129;SDS011;2583;50.946;6.954;2022-10-31T15:53:00;7.73;;;4.80;;
5129;SDS011;2583;50.946;6.954;2022-10-31T15:55:20;12.97;;;5.10;;
5129;SDS011;2583;50.946;6.954;2022-10-31T15:57:50;8.83;;;3.50;;
5129;SDS011;2583;50.946;6.954;2022-10-31T16:13:51;10.23;;;4.10;;
5129;SDS011;2583;50.946;6.954;2022-10-31T16:16:20;12.77;;;4.73;;
5129;SDS011;2583;50.946;6.954;2022-10-31T16:19:04;7.60;;;4.00;;
5129;SDS011;2583;50.946;6.954;2022-10-31T16:21:38;11.50;;;4.87;;
5129;SDS011;2583;50.946;6.954;2022-10-31T16:24:51;4.77;;;4.37;;
5129;SDS011;2583;50.946;6.954;2022-10-31T16:27:05;4.13;;;3.73;;
5129;SDS011;2583;50.946;6.954;2022-10-31T16:29:42;12.20;;;3.77;;
5129;SDS011;2583;50.946;6.954;2022-10-31T16:37:39;13.37;;;5.80;;
5129;SDS011;2583;50.946;6.954;2022-10-31T16:40:07;13.80;;;5.53;;
5129;SDS011;2583;50.946;6.954;2022-10-31T16:42:41;14.60;;;5.07;;
5129;SDS011;2583;50.946;6.954;2022-10-31T16:45:17;5.80;;;3.97;;
5129;SDS011;2583;50.946;6.954;2022-10-31T16:47:47;10.53;;;4.67;;
5129;SDS011;2583;50.946;6.954;2022-10-31T16:50:25;9.33;;;4.57;;
5129;SDS011;2583;50.946;6.954;2022-10-31T16:52:52;10.13;;;3.77;;
5129;SDS011;2583;50.946;6.954;2022-10-31T16:55:41;6.70;;;4.50;;
5129;SDS011;2583;50.946;6.954;2022-10-31T16:58:29;11.20;;;4.30;;
5129;SDS011;2583;50.946;6.954;2022-10-31T17:00:59;7.60;;;4.27;;
5129;SDS011;2583;50.946;6.954;2022-10-31T17:03:27;5.60;;;4.70;;
5129;SDS011;2583;50.946;6.954;2022-10-31T17:05:54;7.53;;;4.70;;
5129;SDS011;2583;50.946;6.954;2022-10-31T17:08:22;6.80;;;4.13;;
5129;SDS011;2583;50.946;6.954;2022-10-31T17:10:50;9.97;;;4.83;;
5129;SDS011;2583;50.946;6.954;2022-10-31T17:13:23;7.00;;;4.47;;
5129;SDS011;2583;50.946;6.954;2022-10-31T17:15:53;9.77;;;4.60;;
5129;SDS011;2583;50.946;6.954;2022-10-31T17:18:21;6.40;;;4.50;;
5129;SDS011;2583;50.946;6.954;2022-10-31T17:20:57;14.30;;;5.13;;
5129;SDS011;2583;50.946;6.954;2022-10-31T17:23:25;10.83;;;4.40;;
5129;SDS011;2583;50.946;6.954;2022-10-31T17:25:52;12.63;;;5.13;;
5129;SDS011;2583;50.946;6.954;2022-10-31T17:28:19;6.20;;;4.37;;
5129;SDS011;2583;50.946;6.954;2022-10-31T17:30:46;23.97;;;5.27;;
5129;SDS011;2583;50.946;6.954;2022-10-31T17:33:14;6.83;;;4.90;;
5129;SDS011;2583;50.946;6.954;2022-10-31T17:35:42;6.60;;;4.50;;
5129;SDS011;2583;50.946;6.954;2022-10-31T17:38:12;6.77;;;4.27;;
5129;SDS011;2583;50.946;6.954;2022-10-31T17:40:39;7.53;;;3.60;;
5129;SDS011;2583;50.946;6.954;2022-10-31T17:43:08;9.03;;;4.30;;
5129;SDS011;2583;50.946;6.954;2022-10-31T17:45:36;14.57;;;5.37;;
5129;SDS011;2583;50.946;6.954;2022-10-31T17:48:04;15.53;;;6.63;;
5129;SDS011;2583;50.946;6.954;2022-10-31T17:50:31;6.60;;;5.17;;
5129;SDS011;2583;50.946;6.954;2022-10-31T17:52:58;10.73;;;5.73;;
5129;SDS011;2583;50.946;6.954;2022-10-31T17:55:25;21.53;;;7.53;;